Time;durP1;ratioP1;P1;durP2;ratioP2;P2;SDS_P1;SDS_P2;PMS_P1;PMS_P2;Temp;Humidity;BMP_temperature;BMP_pressure;BME280_temperature;BME280_humidity;BME280_pressure;Samples;Min_cycle;Max_cycle;Signal;HPM_P1;HPM_P2
2022/12/25 00:02:10;;;;;;;5.13;3.57;;;;;;;7.96;100.00;94795.13;5090399;28;20276;-59
2022/12/25 00:04:35;;;;;;;3.20;2.90;;;;;;;7.98;100.00;94803.41;5091706;28;20577;-60
2022/12/25 00:07:00;;;;;;;4.63;3.27;;;;;;;8.01;100.00;94800.69;5091198;28;20182;-53
2022/12/25 00:09:32;;;;;;;2.87;2.53;;;;;;;8.09;100.00;94808.53;5091606;28;20204;-54
2022/12/25 00:11:58;;;;;;;4.83;3.00;;;;;;;8.10;100.00;94809.34;5091889;28;20260;-53
2022/12/25 00:14:23;;;;;;;4.73;3.20;;;;;;;8.14;100.00;94805.66;5091427;28;20579;-56
2022/12/25 00:16:48;;;;;;;3.50;2.97;;;;;;;8.23;100.00;94812.56;5091287;28;20181;-56
2022/12/25 00:19:14;;;;;;;7.07;3.10;;;;;;;8.26;100.00;94810.66;5091398;28;20211;-55
2022/12/25 00:21:39;;;;;;;4.77;3.27;;;;;;;8.26;100.00;94810.66;5091538;28;20203;-56
2022/12/25 00:24:05;;;;;;;5.10;2.87;;;;;;;8.32;100.00;94827.16;5091471;28;20291;-56
2022/12/25 00:26:30;;;;;;;6.47;3.63;;;;;;;8.41;100.00;94832.34;5091240;28;20211;-55
2022/12/25 00:28:57;;;;;;;4.20;3.00;;;;;;;8.36;100.00;94824.25;5091184;28;20280;-56
2022/12/25 00:31:24;;;;;;;5.20;3.27;;;;;;;8.36;100.00;94829.31;5073358;28;20341;-56
2022/12/25 00:33:50;;;;;;;3.90;2.90;;;;;;;8.35;100.00;94837.84;5091257;28;20197;-54
2022/12/25 00:36:17;;;;;;;4.87;3.33;;;;;;;8.36;100.00;94839.44;5073416;28;20289;-53
2022/12/25 00:38:43;;;;;;;3.80;3.07;;;;;;;8.32;100.00;94830.47;5091263;28;20192;-56
2022/12/25 00:41:14;;;;;;;5.53;3.00;;;;;;;8.38;100.00;94836.84;5091235;28;20272;-53
2022/12/25 00:43:41;;;;;;;5.43;3.37;;;;;;;8.31;100.00;94820.47;5091116;28;20242;-54
2022/12/25 00:46:07;;;;;;;4.70;3.33;;;;;;;8.30;100.00;94821.38;5091373;28;20219;-56
2022/12/25 00:48:34;;;;;;;4.37;3.37;;;;;;;8.33;100.00;94828.75;5072786;28;20195;-55
2022/12/25 00:51:02;;;;;;;3.47;3.10;;;;;;;8.28;100.00;94818.94;5091189;28;20212;-53
2022/12/25 00:53:28;;;;;;;4.83;3.20;;;;;;;8.24;100.00;94824.34;5090885;28;20191;-53
2022/12/25 00:55:56;;;;;;;5.73;3.47;;;;;;;8.24;100.00;94825.13;5090768;28;20219;-53
2022/12/25 00:58:23;;;;;;;3.00;2.70;;;;;;;8.19;100.00;94829.72;5090878;28;20206;-55
2022/12/25 01:00:49;;;;;;;6.73;2.80;;;;;;;8.26;100.00;94832.66;5090840;28;20212;-53
2022/12/25 01:03:16;;;;;;;7.00;3.10;;;;;;;8.21;100.00;94832.97;5072656;28;20215;-55
2022/12/25 01:05:41;;;;;;;5.97;3.30;;;;;;;8.14;100.00;94823.38;5090758;28;20216;-56
2022/12/25 01:08:13;;;;;;;3.43;2.77;;;;;;;8.10;100.00;94820.25;5090810;28;20265;-54
2022/12/25 01:10:38;;;;;;;2.23;1.90;;;;;;;8.15;100.00;94820.75;5090691;28;20223;-53
2022/12/25 01:13:03;;;;;;;4.13;2.93;;;;;;;8.11;100.00;94819.34;5072606;28;20188;-56
2022/12/25 01:15:29;;;;;;;3.70;2.80;;;;;;;8.13;100.00;94822.56;5090807;28;20208;-55
2022/12/25 01:17:54;;;;;;;4.27;2.57;;;;;;;8.11;100.00;94834.53;5091757;28;20191;-56
2022/12/25 01:20:20;;;;;;;4.20;2.47;;;;;;;8.08;100.00;94829.69;5094200;28;20280;-56
2022/12/25 01:22:45;;;;;;;2.53;2.20;;;;;;;8.08;100.00;94839.03;5094253;28;20303;-57
2022/12/25 01:25:12;;;;;;;3.47;2.47;;;;;;;8.09;100.00;94846.50;5094002;28;20222;-57
2022/12/25 01:27:39;;;;;;;3.13;2.07;;;;;;;8.14;100.00;94857.09;5094196;28;20187;-54
2022/12/25 01:30:05;;;;;;;4.17;2.50;;;;;;;8.12;100.00;94863.19;5093991;28;20295;-54
2022/12/25 01:32:31;;;;;;;3.20;2.13;;;;;;;7.99;100.00;94850.63;5093950;28;20242;-53
2022/12/25 01:34:56;;;;;;;3.90;2.43;;;;;;;7.99;100.00;94850.63;5094108;28;20208;-55
2022/12/25 01:37:23;;;;;;;3.47;2.67;;;;;;;7.94;100.00;94837.47;5093828;28;20207;-54
2022/12/25 01:39:49;;;;;;;2.57;2.20;;;;;;;7.93;100.00;94840.13;5093616;28;20207;-54
2022/12/25 01:42:22;;;;;;;4.23;2.80;;;;;;;7.88;100.00;94835.38;5094343;28;20184;-53
2022/12/25 01:44:48;;;;;;;3.33;2.57;;;;;;;7.95;100.00;94844.16;5093813;28;20692;-54
2022/12/25 01:47:15;;;;;;;6.70;2.60;;;;;;;7.86;100.00;94829.59;5093795;28;20191;-53
2022/12/25 01:49:45;;;;;;;4.67;2.57;;;;;;;8.01;100.00;94861.44;5093899;28;20231;-61
2022/12/25 01:52:14;;;;;;;5.60;2.60;;;;;;;7.96;100.00;94848.28;5093644;28;20203;-53
2022/12/25 01:54:47;;;;;;;3.07;2.20;;;;;;;7.94;100.00;94846.81;5093785;28;20728;-53
2022/12/25 01:57:20;;;;;;;2.67;2.07;;;;;;;7.93;100.00;94848.53;5093648;28;20192;-57
2022/12/25 01:59:47;;;;;;;2.80;2.13;;;;;;;7.95;100.00;94846.69;5075454;28;20685;-52
2022/12/25 02:02:13;;;;;;;3.30;2.40;;;;;;;7.92;100.00;94838.50;5093572;28;20200;-54
2022/12/25 02:04:47;;;;;;;3.60;2.50;;;;;;;8.00;100.00;94854.75;5093480;28;20215;-56
2022/12/25 02:07:21;;;;;;;2.57;2.10;;;;;;;7.94;100.00;94857.72;5093959;28;20192;-53
2022/12/25 02:09:47;;;;;;;3.30;2.70;;;;;;;7.83;100.00;94856.88;5093550;28;20215;-55
2022/12/25 02:12:24;;;;;;;2.73;2.40;;;;;;;7.80;100.00;94852.81;5093699;28;20192;-55
2022/12/25 02:14:52;;;;;;;5.17;2.60;;;;;;;7.82;100.00;94847.69;5093394;28;20215;-54
2022/12/25 02:17:41;;;;;;;3.43;2.73;;;;;;;7.68;100.00;94825.03;5093367;28;20257;-56
2022/12/25 02:20:35;;;;;;;4.30;3.50;;;;;;;7.82;100.00;94848.47;5093230;28;20299;-55
2022/12/25 02:23:36;;;;;;;3.03;2.70;;;;;;;7.69;100.00;94842.66;5093348;28;20725;-53
2022/12/25 02:26:40;;;;;;;4.27;2.77;;;;;;;7.72;100.00;94844.97;5093605;28;20223;-54
2022/12/25 02:29:24;;;;;;;3.50;2.50;;;;;;;7.68;100.00;94838.50;5041611;28;20229;-56
2022/12/25 02:31:59;;;;;;;4.53;2.87;;;;;;;7.67;100.00;94844.50;5093496;28;20219;-53
2022/12/25 02:34:43;;;;;;;6.27;2.97;;;;;;;7.67;100.00;94852.09;5075035;28;20575;-56
2022/12/25 02:37:33;;;;;;;2.90;2.53;;;;;;;7.59;100.00;94846.75;5093312;28;20192;-54
2022/12/25 02:40:04;;;;;;;3.77;2.67;;;;;;;7.62;100.00;94849.88;5093101;28;20233;-55
2022/12/25 03:08:02;;;;;;;4.53;2.17;;;;;;;7.50;100.00;94875.19;5093030;28;20225;-54
2022/12/25 03:13:23;;;;;;;2.70;2.20;;;;;;;7.56;100.00;94905.13;5093039;28;20187;-54
2022/12/25 03:18:34;;;;;;;3.27;2.53;;;;;;;7.60;100.00;94921.72;5092732;28;20579;-53
2022/12/25 03:32:17;;;;;;;3.57;2.40;;;;;;;7.49;100.00;94944.41;5049924;28;20200;-55
2022/12/25 04:36:12;;;;;;;4.10;2.73;;;;;;;7.12;100.00;94935.16;5091250;28;20295;-53
2022/12/25 04:38:39;;;;;;;4.53;2.77;;;;;;;7.05;100.00;94924.63;5091382;28;20651;-53
2022/12/25 04:41:06;;;;;;;3.37;2.77;;;;;;;7.01;100.00;94932.56;5091069;28;20212;-53
2022/12/25 04:43:31;;;;;;;7.53;2.67;;;;;;;6.97;100.00;94931.91;5091058;28;20258;-53
2022/12/25 04:45:59;;;;;;;3.13;2.77;;;;;;;6.97;100.00;94933.66;5091181;28;20656;-54
2022/12/25 04:48:26;;;;;;;5.00;3.30;;;;;;;6.97;100.00;94928.59;5091218;28;20188;-55
2022/12/25 04:50:52;;;;;;;3.33;2.70;;;;;;;6.98;100.00;94933.56;5090814;28;20220;-55
2022/12/25 04:53:18;;;;;;;4.03;2.77;;;;;;;6.90;100.00;94919.81;5089630;28;20635;-53
2022/12/25 04:55:44;;;;;;;4.93;2.70;;;;;;;6.86;100.00;94916.69;5090916;28;20212;-55
2022/12/25 04:58:09;;;;;;;5.70;2.50;;;;;;;6.94;100.00;94934.66;5091235;28;20257;-54
2022/12/25 05:00:35;;;;;;;5.57;3.30;;;;;;;6.93;100.00;94940.63;5090777;28;20219;-57
2022/12/25 05:03:00;;;;;;;6.23;2.90;;;;;;;6.84;100.00;94928.59;5090906;28;20211;-56
2022/12/25 05:05:26;;;;;;;4.90;3.03;;;;;;;6.84;100.00;94927.78;5090940;28;20211;-56
2022/12/25 05:07:51;;;;;;;4.27;2.90;;;;;;;6.87;100.00;94927.59;5090884;28;20188;-56
2022/12/25 05:10:17;;;;;;;4.60;2.90;;;;;;;6.85;100.00;94920.09;5090661;28;20648;-53
2022/12/25 05:12:43;;;;;;;5.93;3.30;;;;;;;6.83;100.00;94921.91;5090798;28;20205;-53
2022/12/25 05:15:09;;;;;;;5.40;3.43;;;;;;;6.90;100.00;94924.84;5072557;28;20207;-56
2022/12/25 05:17:34;;;;;;;4.43;2.77;;;;;;;6.93;100.00;94937.31;5090685;28;20195;-55
2022/12/25 05:20:00;;;;;;;4.43;2.90;;;;;;;6.88;100.00;94941.84;5090631;28;20216;-55
2022/12/25 05:22:25;;;;;;;5.77;3.03;;;;;;;6.85;100.00;94942.84;5090482;28;20196;-52
2022/12/25 05:24:51;;;;;;;2.23;2.00;;;;;;;6.84;100.00;94950.53;5090622;28;20207;-55
2022/12/25 05:27:16;;;;;;;4.33;3.07;;;;;;;6.94;100.00;94966.69;5090394;28;20179;-56
2022/12/25 05:29:41;;;;;;;3.20;2.90;;;;;;;6.88;100.00;94964.56;5090451;28;20243;-54
2022/12/25 05:32:10;;;;;;;5.40;2.97;;;;;;;6.86;100.00;94973.97;5090574;28;20214;-53
2022/12/25 05:34:36;;;;;;;7.17;3.30;;;;;;;6.90;100.00;94995.59;5090484;28;20599;-55
2022/12/25 05:37:01;;;;;;;5.20;2.60;;;;;;;6.86;100.00;94992.47;5090504;28;20184;-53
2022/12/25 05:39:26;;;;;;;2.70;2.20;;;;;;;6.87;100.00;95006.72;5090254;28;20288;-53
2022/12/25 05:41:52;;;;;;;4.37;2.50;;;;;;;6.98;100.00;95026.25;5090490;28;20672;-54
2022/12/25 05:44:17;;;;;;;3.50;2.43;;;;;;;6.98;100.00;95031.28;5090304;28;20327;-55
2022/12/25 05:46:43;;;;;;;4.23;2.60;;;;;;;6.98;100.00;95028.78;5090514;28;20196;-54
2022/12/25 05:49:08;;;;;;;3.53;2.33;;;;;;;6.96;100.00;95043.22;5090378;28;20192;-53
2022/12/25 05:51:34;;;;;;;4.63;2.00;;;;;;;7.10;100.00;95076.00;5090337;28;20637;-55
2022/12/25 05:53:59;;;;;;;2.77;1.90;;;;;;;7.15;100.00;95095.00;5071894;28;20220;-57
2022/12/25 05:56:25;;;;;;;2.50;1.87;;;;;;;7.13;100.00;95085.94;5089755;28;20195;-56
2022/12/25 05:58:51;;;;;;;2.83;1.83;;;;;;;7.13;100.00;95083.41;5090271;28;20200;-54
2022/12/25 06:01:20;;;;;;;4.27;1.83;;;;;;;7.18;100.00;95101.59;5090204;28;20188;-52
2022/12/25 06:03:46;;;;;;;3.27;1.90;;;;;;;7.25;100.00;95105.38;5090979;28;20216;-55
2022/12/25 06:06:12;;;;;;;1.67;1.20;;;;;;;7.21;100.00;95121.63;5093344;28;20218;-56
2022/12/25 06:08:37;;;;;;;2.40;1.40;;;;;;;7.31;100.00;95136.09;5093352;28;20685;-54
2022/12/25 06:11:04;;;;;;;1.40;1.30;;;;;;;7.33;100.00;95139.34;5093395;28;20207;-54
2022/12/25 06:13:31;;;;;;;2.70;1.40;;;;;;;7.34;100.00;95130.03;5093383;28;20661;-57
2022/12/25 06:15:56;;;;;;;1.83;1.30;;;;;;;7.41;100.00;95154.03;5093267;28;20770;-53
2022/12/25 06:18:21;;;;;;;1.40;1.00;;;;;;;7.46;100.00;95162.94;5093212;28;20585;-55
2022/12/25 06:20:47;;;;;;;2.43;1.60;;;;;;;7.44;100.00;95153.81;5093160;28;20634;-53
2022/12/25 06:23:13;;;;;;;2.23;1.47;;;;;;;7.51;100.00;95162.66;5092698;28;20223;-54
2022/12/25 06:25:39;;;;;;;2.77;1.20;;;;;;;7.52;100.00;95169.31;5093035;28;20291;-56
2022/12/25 06:28:05;;;;;;;2.43;1.50;;;;;;;7.60;100.00;95179.75;5093180;28;20188;-52
2022/12/25 06:30:30;;;;;;;2.40;1.50;;;;;;;7.55;100.00;95159.03;5092987;28;20261;-56
2022/12/25 06:32:56;;;;;;;2.63;1.47;;;;;;;7.56;100.00;95160.63;5092822;28;20192;-56
2022/12/25 06:35:21;;;;;;;3.77;1.40;;;;;;;7.57;100.00;95157.19;5093139;28;20299;-54
2022/12/25 06:37:46;;;;;;;1.77;1.17;;;;;;;7.57;100.00;95162.25;5092896;28;20295;-53
2022/12/25 06:40:12;;;;;;;4.23;1.90;;;;;;;7.65;100.00;95165.88;5074985;28;20219;-56
2022/12/25 06:42:38;;;;;;;2.77;1.87;;;;;;;7.62;100.00;95162.75;5092685;28;20200;-56
2022/12/25 06:45:04;;;;;;;2.90;1.40;;;;;;;7.71;100.00;95159.66;5092899;28;20208;-56
2022/12/25 06:47:29;;;;;;;2.47;1.43;;;;;;;7.72;100.00;95168.03;5092704;28;20200;-55
2022/12/25 06:49:54;;;;;;;4.13;1.80;;;;;;;7.73;100.00;95177.25;5092745;28;20677;-54
2022/12/25 06:52:20;;;;;;;2.67;1.67;;;;;;;7.78;100.00;95183.63;5092750;28;20288;-53
2022/12/25 06:54:46;;;;;;;3.43;1.80;;;;;;;7.87;100.00;95187.28;5092759;28;20282;-54
2022/12/25 06:57:11;;;;;;;3.83;1.87;;;;;;;7.86;100.00;95203.38;5092663;28;20195;-54
2022/12/25 06:59:37;;;;;;;3.70;1.63;;;;;;;7.92;100.00;95205.53;5092527;28;20204;-53
2022/12/25 07:02:02;;;;;;;2.43;1.67;;;;;;;7.96;100.00;95217.06;5092588;28;20188;-53
2022/12/25 07:04:36;;;;;;;2.20;1.57;;;;;;;8.01;100.00;95208.25;5092319;28;20227;-53
2022/12/25 07:07:03;;;;;;;2.80;1.60;;;;;;;8.03;100.00;95215.72;5092509;28;20568;-53
2022/12/25 07:09:28;;;;;;;3.20;1.37;;;;;;;8.13;100.00;95229.41;5092324;28;20628;-55
2022/12/25 07:12:02;;;;;;;3.13;1.77;;;;;;;8.14;100.00;95234.38;5092444;28;20231;-56
2022/12/25 07:14:28;;;;;;;2.50;1.83;;;;;;;8.24;100.00;95242.97;5091996;28;20219;-58
2022/12/25 07:16:54;;;;;;;3.07;1.60;;;;;;;8.24;100.00;95245.50;5091471;28;20199;-52
2022/12/25 07:19:19;;;;;;;2.23;1.53;;;;;;;8.39;100.00;95253.84;5092049;28;20208;-53
2022/12/25 07:21:45;;;;;;;3.57;1.40;;;;;;;8.48;100.00;95259.09;5092320;28;20580;-54
2022/12/25 07:24:10;;;;;;;2.40;1.57;;;;;;;8.59;100.00;95285.44;5091845;28;20234;-55
2022/12/25 07:26:36;;;;;;;2.37;1.43;;;;;;;8.64;100.00;95285.97;5092107;28;20562;-54
2022/12/25 07:29:01;;;;;;;3.63;1.77;;;;;;;8.71;100.00;95290.53;5091906;28;20192;-54
2022/12/25 07:31:26;;;;;;;6.97;2.27;;;;;;;8.76;100.00;95298.63;5092200;28;20219;-54
2022/12/25 07:33:53;;;;;;;8.27;3.33;;;;;;;8.76;100.00;95300.34;5092057;28;20255;-54
2022/12/25 07:36:18;;;;;;;7.63;3.07;;;;;;;8.82;100.00;95308.38;5092345;28;20184;-54
2022/12/25 07:38:48;;;;;;;4.27;2.57;;;;;;;8.96;100.00;95310.78;5091906;28;20670;-53
2022/12/25 07:41:13;;;;;;;6.80;2.63;;;;;;;9.01;100.00;95318.06;5091700;28;20306;-54
2022/12/25 07:43:39;;;;;;;6.60;3.03;;;;;;;9.18;100.00;95327.88;5091695;28;20713;-54
2022/12/25 07:46:05;;;;;;;6.63;1.90;;;;;;;9.22;100.00;95342.78;5091928;28;20690;-53
2022/12/25 07:48:30;;;;;;;11.20;3.70;;;;;;;9.43;100.00;95347.31;5091860;28;20585;-53
2022/12/25 07:51:02;;;;;;;5.30;1.73;;;;;;;9.42;100.00;95374.41;5091619;28;20239;-54
2022/12/25 07:53:27;;;;;;;3.67;1.67;;;;;;;9.49;100.00;95360.38;5091739;28;20226;-53
2022/12/25 07:56:00;;;;;;;4.27;1.83;;;;;;;9.66;100.00;95366.81;5091782;28;20215;-53
2022/12/25 07:58:27;;;;;;;4.50;1.30;;;;;;;9.71;100.00;95387.63;5091803;28;20200;-54
2022/12/25 08:00:53;;;;;;;13.23;5.97;;;;;;;9.63;100.00;95377.19;5091690;28;20212;-54
2022/12/25 08:03:18;;;;;;;8.30;2.43;;;;;;;9.87;100.00;95396.59;5091327;28;20226;-55
2022/12/25 08:05:44;;;;;;;2.00;1.40;;;;;;;9.69;100.00;95392.00;5091500;28;20239;-53
2022/12/25 08:08:09;;;;;;;2.67;1.50;;;;;;;9.88;100.00;95398.22;5091252;28;20188;-54
2022/12/25 08:10:36;;;;;;;12.67;5.17;;;;;;;9.94;100.00;95405.41;5091527;28;20269;-56
2022/12/25 08:13:01;;;;;;;8.37;3.43;;;;;;;10.12;100.00;95386.34;5091334;28;20282;-53
2022/12/25 08:15:29;;;;;;;7.70;2.97;;;;;;;10.24;100.00;95432.94;5091401;28;20259;-56
2022/12/25 08:17:55;;;;;;;2.73;1.40;;;;;;;9.97;100.00;95417.91;5091375;28;20657;-53
2022/12/25 08:20:20;;;;;;;4.23;1.73;;;;;;;10.15;100.00;95413.28;5091381;28;20215;-54
2022/12/25 08:22:46;;;;;;;8.30;1.27;;;;;;;10.38;100.00;95431.97;5091086;28;20664;-57
2022/12/25 08:25:12;;;;;;;2.07;1.60;;;;;;;10.53;100.00;95446.94;5091408;28;20295;-54
2022/12/25 08:27:37;;;;;;;1.70;1.00;;;;;;;10.42;100.00;95428.31;5090800;28;20198;-56
2022/12/25 08:30:03;;;;;;;4.23;1.77;;;;;;;10.60;100.00;95440.50;5091382;28;20208;-57
2022/12/25 08:32:31;;;;;;;2.17;1.50;;;;;;;10.52;100.00;95424.19;5091086;28;20188;-56
2022/12/25 08:34:56;;;;;;;1.50;1.10;;;;;;;10.59;100.00;95438.06;5091090;28;20220;-58
2022/12/25 08:37:22;;;;;;;1.47;1.17;;;;;;;10.86;100.00;95434.34;5091140;28;20192;-55
2022/12/25 08:39:47;;;;;;;4.47;1.40;;;;;;;11.29;100.00;95484.59;5090948;28;20294;-56
2022/12/25 08:42:14;;;;;;;4.10;1.63;;;;;;;11.27;100.00;95477.06;5090881;28;20199;-54
2022/12/25 08:44:39;;;;;;;3.10;1.70;;;;;;;11.33;100.00;95489.31;5090615;28;20752;-54
2022/12/25 08:47:04;;;;;;;4.50;1.50;;;;;;;11.39;100.00;95495.72;5090879;28;20188;-53
2022/12/25 08:49:30;;;;;;;4.00;1.40;;;;;;;10.97;100.00;95469.13;5090834;28;20218;-53
2022/12/25 08:51:55;;;;;;;2.60;1.37;;;;;;;11.19;100.00;95468.41;5090806;28;20188;-56
2022/12/25 08:54:21;;;;;;;4.67;1.37;;;;;;;11.31;100.00;95486.09;5090702;28;20760;-55
2022/12/25 08:56:46;;;;;;;3.10;1.27;;;;;;;11.46;100.00;95484.97;5090810;28;20190;-55
2022/12/25 08:59:12;;;;;;;4.10;1.97;;;;;;;11.67;100.00;95501.22;5090525;28;20701;-54
2022/12/25 09:01:37;;;;;;;1.97;1.20;;;;;;;11.73;100.00;95507.59;5090343;28;20188;-54
2022/12/25 09:04:02;;;;;;;3.03;1.50;;;;;;;11.98;100.00;95506.53;5090658;28;20212;-54
2022/12/25 09:06:28;;;;;;;2.73;1.33;;;;;;;11.79;100.00;95505.38;5072499;28;20188;-58
2022/12/25 09:08:53;;;;;;;3.47;1.40;;;;;;;11.53;100.00;95465.75;5090401;28;20200;-55
2022/12/25 09:11:20;;;;;;;2.63;1.43;;;;;;;11.96;100.00;95505.84;5090584;28;20657;-53
2022/12/25 09:13:46;;;;;;;1.73;1.30;;;;;;;11.75;100.00;95491.25;5090495;28;20190;-62
2022/12/25 09:16:14;;;;;;;2.57;2.03;;;;;;;11.95;100.00;95494.00;5098041;22;20224;-59
2022/12/25 09:18:40;;;;;;;2.47;1.30;;;;;;;12.10;100.00;95495.41;5090648;28;20654;-56
2022/12/25 09:21:08;;;;;;;2.53;1.50;;;;;;;12.04;100.00;95494.09;5090384;28;20212;-55
2022/12/25 09:23:34;;;;;;;2.90;1.47;;;;;;;12.21;100.00;95496.19;5090406;28;20294;-57
2022/12/25 09:26:01;;;;;;;3.13;1.23;;;;;;;12.45;100.00;95513.84;5090349;28;20365;-55
2022/12/25 09:28:27;;;;;;;4.67;1.33;;;;;;;12.67;100.00;95539.28;5090429;28;20184;-58
2022/12/25 09:30:53;;;;;;;1.47;1.30;;;;;;;12.97;99.02;95559.03;5090805;28;20211;-58
2022/12/25 09:33:19;;;;;;;2.73;1.40;;;;;;;12.51;98.22;95557.53;5090477;28;20195;-55
2022/12/25 09:35:58;;;;;;;3.30;1.40;;;;;;;12.46;99.21;95533.34;5090620;28;20219;-55
2022/12/25 09:38:25;;;;;;;1.83;1.27;;;;;;;12.33;98.93;95536.03;5090821;28;20675;-55
2022/12/25 09:41:20;;;;;;;1.63;1.47;;;;;;;12.58;97.43;95563.78;5094031;28;20289;-55
2022/12/25 09:43:51;;;;;;;2.60;1.40;;;;;;;12.47;96.65;95581.66;5056753;28;20223;-55
2022/12/25 09:46:20;;;;;;;1.77;1.20;;;;;;;12.73;95.60;95594.94;5093642;28;20248;-56
2022/12/25 09:49:09;;;;;;;2.17;1.10;;;;;;;12.50;95.53;95588.28;5093679;28;20687;-56
2022/12/25 09:51:36;;;;;;;1.63;1.20;;;;;;;12.91;94.55;95596.06;5093014;28;20683;-58
2022/12/25 09:54:19;;;;;;;3.90;1.10;;;;;;;13.61;91.26;95651.75;5093718;28;20236;-57
2022/12/25 09:56:45;;;;;;;2.73;1.03;;;;;;;13.04;72.14;95639.31;5093865;28;20224;-58
2022/12/25 09:59:19;;;;;;;1.33;0.87;;;;;;;12.96;72.48;95588.03;5093544;28;20290;-55
2022/12/25 10:02:03;;;;;;;1.90;1.50;;;;;;;13.55;70.67;95616.50;5093658;28;20194;-57
2022/12/25 10:04:53;;;;;;;2.60;1.27;;;;;;;13.46;69.67;95633.38;5093414;28;20299;-56
2022/12/25 10:07:34;;;;;;;3.00;1.40;;;;;;;13.80;68.25;95659.56;5093799;28;20674;-58
2022/12/25 10:10:15;;;;;;;2.53;1.30;;;;;;;13.63;68.88;95639.69;5093387;28;20242;-56
2022/12/25 10:12:55;;;;;;;2.40;1.27;;;;;;;13.58;68.61;95626.44;5093382;28;20185;-56
2022/12/25 10:15:28;;;;;;;1.40;0.80;;;;;;;13.58;68.52;95616.22;5093365;28;20212;-58
2022/12/25 10:18:06;;;;;;;1.40;1.15;;;;;;;13.74;68.65;95611.50;5093253;28;20726;-58
2022/12/25 10:20:55;;;;;;;2.93;1.50;;;;;;;14.11;67.56;95653.56;5093348;28;20291;-55
2022/12/25 10:23:29;;;;;;;3.63;1.33;;;;;;;14.02;67.44;95647.44;5093067;28;20200;-56
2022/12/25 10:25:55;;;;;;;3.83;1.87;;;;;;;14.30;67.05;95651.16;5093178;28;20213;-56
2022/12/25 10:28:39;;;;;;;3.20;1.23;;;;;;;14.14;66.36;95646.44;5093198;28;20184;-56
2022/12/25 10:31:15;;;;;;;2.50;1.33;;;;;;;14.50;65.78;95657.16;5092824;28;20290;-57
2022/12/25 10:33:41;;;;;;;2.03;1.27;;;;;;;14.33;65.35;95671.34;5092963;28;20196;-55
2022/12/25 10:36:08;;;;;;;1.27;1.03;;;;;;;14.04;65.91;95655.81;5092896;28;20697;-57
2022/12/25 10:38:35;;;;;;;4.00;1.30;;;;;;;13.73;66.03;95640.56;5092751;28;20279;-56
2022/12/25 10:41:06;;;;;;;3.97;1.20;;;;;;;13.43;67.81;95587.66;5093146;28;20200;-55
2022/12/25 10:43:44;;;;;;;1.87;1.13;;;;;;;13.63;67.72;95580.91;5092929;28;20582;-54
2022/12/25 10:46:12;;;;;;;1.83;1.07;;;;;;;13.61;67.13;95616.81;5092731;28;20211;-56
2022/12/25 10:48:43;;;;;;;2.70;1.40;;;;;;;13.55;67.82;95596.06;5092845;28;20215;-57
2022/12/25 10:51:15;;;;;;;2.03;1.20;;;;;;;13.68;66.93;95605.13;5092715;28;20211;-55
2022/12/25 10:53:42;;;;;;;2.77;1.33;;;;;;;13.74;67.65;95596.16;5092936;28;20219;-54
2022/12/25 10:56:18;;;;;;;2.20;1.27;;;;;;;13.77;67.03;95616.38;5092574;28;20653;-56
2022/12/25 10:58:44;;;;;;;1.43;0.93;;;;;;;13.54;67.13;95594.41;5092645;28;20226;-56
2022/12/25 11:01:11;;;;;;;1.90;1.43;;;;;;;13.61;67.71;95582.78;5074369;28;20705;-56
2022/12/25 11:03:40;;;;;;;3.63;1.40;;;;;;;13.76;68.02;95569.53;5092686;28;20234;-54
2022/12/25 11:06:20;;;;;;;2.70;1.30;;;;;;;13.78;68.06;95569.41;5092375;28;20216;-56
2022/12/25 11:08:52;;;;;;;3.77;1.57;;;;;;;13.97;67.81;95589.97;5100305;22;20219;-57
2022/12/25 11:11:19;;;;;;;3.47;1.03;;;;;;;14.21;66.64;95603.28;5072160;28;20181;-57
2022/12/25 11:13:51;;;;;;;2.20;1.20;;;;;;;14.48;66.17;95618.09;5072278;28;20291;-57
2022/12/25 11:16:25;;;;;;;3.10;1.30;;;;;;;14.99;64.80;95663.09;5072010;28;20266;-55
2022/12/25 11:18:53;;;;;;;2.63;1.58;;;;;;;14.74;65.86;95626.91;5072226;28;20810;-56
2022/12/25 11:21:31;;;;;;;2.07;1.13;;;;;;;14.88;65.30;95637.59;5071995;28;20187;-54
2022/12/25 11:24:02;;;;;;;2.60;1.53;;;;;;;14.52;65.29;95624.56;5071988;28;20227;-58
2022/12/25 11:26:33;;;;;;;2.75;1.58;;;;;;;14.03;66.95;95592.03;5071954;28;20192;-56
2022/12/25 11:29:00;;;;;;;2.30;1.27;;;;;;;13.68;67.02;95531.03;5072015;28;20184;-55
2022/12/25 11:31:42;;;;;;;3.63;1.40;;;;;;;13.43;67.35;95565.44;5071774;28;20271;-58
2022/12/25 11:34:22;;;;;;;1.37;1.00;;;;;;;13.61;67.69;95552.94;5071934;28;20203;-55
2022/12/25 11:36:50;;;;;;;2.05;1.13;;;;;;;13.74;67.50;95570.59;5071934;28;20233;-54
2022/12/25 11:39:30;;;;;;;1.63;1.10;;;;;;;14.00;67.00;95576.91;5071910;28;20219;-54
2022/12/25 11:42:07;;;;;;;1.40;1.27;;;;;;;14.04;66.62;95583.41;5071634;28;20192;-54
2022/12/25 11:44:47;;;;;;;1.65;1.30;;;;;;;14.30;64.86;95636.59;5053517;28;20220;-54
2022/12/25 11:47:55;;;;;;;3.83;1.27;;;;;;;14.16;66.50;95590.03;5071563;28;20197;-59
2022/12/25 11:50:31;;;;;;;1.83;1.13;;;;;;;14.04;66.72;95581.66;5032756;28;20226;-56
2022/12/25 11:52:59;;;;;;;1.47;1.03;;;;;;;13.43;68.26;95519.47;5071729;28;20212;-55
2022/12/25 11:55:34;;;;;;;0.87;0.77;;;;;;;13.48;68.87;95512.25;5071334;28;20209;-55
2022/12/25 11:58:09;;;;;;;2.10;1.00;;;;;;;13.45;68.96;95517.59;5071344;28;20226;-54
2022/12/25 12:00:35;;;;;;;3.47;1.50;;;;;;;13.62;68.50;95526.44;5071521;28;20262;-54
2022/12/25 12:03:25;;;;;;;3.63;1.20;;;;;;;13.74;68.69;95532.25;5070718;28;20189;-57
2022/12/25 12:06:01;;;;;;;2.43;1.27;;;;;;;13.78;68.08;95548.97;5071422;28;20290;-58
2022/12/25 12:08:27;;;;;;;2.63;0.87;;;;;;;13.71;68.32;95519.75;5071366;28;20193;-56
2022/12/25 12:11:17;;;;;;;2.40;1.50;;;;;;;13.90;67.23;95553.88;5071422;28;20291;-57
2022/12/25 12:13:51;;;;;;;2.50;1.17;;;;;;;13.58;68.50;95524.25;5071407;28;20201;-55
2022/12/25 12:16:17;;;;;;;1.42;1.20;;;;;;;13.40;68.79;95512.06;5071292;28;20183;-54
2022/12/25 12:18:44;;;;;;;2.53;1.30;;;;;;;13.65;68.16;95530.50;5071279;28;20272;-55
2022/12/25 12:21:22;;;;;;;0.97;0.87;;;;;;;13.78;67.66;95542.13;5070992;28;20645;-54
2022/12/25 12:23:53;;;;;;;1.23;1.13;;;;;;;13.83;67.99;95528.97;5071271;28;20258;-55
2022/12/25 12:26:27;;;;;;;4.70;1.30;;;;;;;13.60;67.17;95551.31;5071252;28;20181;-53
2022/12/25 12:28:56;;;;;;;2.43;1.00;;;;;;;13.48;68.73;95514.81;5071287;28;20216;-55
2022/12/25 12:31:22;;;;;;;1.40;1.03;;;;;;;13.18;69.54;95491.78;5070970;28;20214;-54
2022/12/25 12:33:56;;;;;;;3.27;1.07;;;;;;;13.41;68.90;95515.44;5071093;28;20606;-54
2022/12/25 12:36:25;;;;;;;2.07;1.40;;;;;;;13.53;68.58;95531.50;5071049;28;20268;-53
2022/12/25 12:38:54;;;;;;;1.97;1.10;;;;;;;13.67;68.37;95531.16;5070911;28;20603;-56
2022/12/25 12:41:21;;;;;;;2.80;1.47;;;;;;;13.86;67.34;95565.28;5070867;28;20280;-56
2022/12/25 12:43:47;;;;;;;1.93;1.33;;;;;;;13.65;67.92;95540.72;5070914;28;20196;-55
2022/12/25 12:46:31;;;;;;;2.20;1.20;;;;;;;13.54;68.01;95551.00;5070759;28;20269;-54
2022/12/25 12:49:31;;;;;;;1.70;1.20;;;;;;;13.40;68.55;95532.50;5070705;28;20192;-57
2022/12/25 12:52:06;;;;;;;1.73;1.20;;;;;;;13.29;69.42;95516.44;5027937;28;20223;-57
2022/12/25 12:54:31;;;;;;;7.97;3.57;;;;;;;13.36;68.41;95532.88;5070673;28;20222;-56
2022/12/25 12:57:22;;;;;;;7.70;2.37;;;;;;;13.55;67.50;95570.50;5070838;28;20609;-57
2022/12/25 12:59:47;;;;;;;10.57;5.13;;;;;;;13.44;68.25;95550.94;5070544;28;20217;-53
2022/12/25 13:02:50;;;;;;;5.70;2.40;;;;;;;13.93;66.49;95588.59;5070619;28;20181;-57
2022/12/25 13:05:37;;;;;;;33.33;16.03;;;;;;;13.43;68.30;95547.56;5070963;28;20208;-57
2022/12/25 13:08:13;;;;;;;20.33;8.93;;;;;;;13.31;68.52;95528.13;5070533;28;20185;-56
2022/12/25 13:11:02;;;;;;;2.07;1.50;;;;;;;13.77;67.46;95570.38;5070750;28;20246;-54
2022/12/25 13:13:34;;;;;;;4.43;1.53;;;;;;;13.92;66.55;95584.41;5071416;28;20197;-58
2022/12/25 13:16:00;;;;;;;4.10;1.60;;;;;;;13.98;66.39;95596.69;5074562;28;20287;-56
2022/12/25 13:18:26;;;;;;;3.57;1.83;;;;;;;13.96;66.79;95578.13;5074461;28;20195;-56
2022/12/25 13:20:59;;;;;;;2.87;1.47;;;;;;;13.58;66.47;95583.00;5074389;28;20299;-57
2022/12/25 13:23:32;;;;;;;3.13;1.40;;;;;;;13.46;67.20;95567.78;5074223;28;20798;-56
2022/12/25 13:26:00;;;;;;;2.90;1.27;;;;;;;13.21;68.17;95534.91;5074317;28;20204;-55
2022/12/25 13:28:27;;;;;;;1.97;1.20;;;;;;;12.85;69.07;95517.44;5055877;28;20247;-54